• Join FlightAware (Why Join?)
  • Login
  • US Flag GB Flag 
10:31 EDT


 

Airport Tracker/Info


-or-


 

Live Flight TrackerFlight Track Log ✈ N8414Z ✈ 02-Dec-2013 ✈ KTLH - KAPF

Flight Track Log - Related Links

Times and Time Zones

All times are in EST time to prevent confusion due to time zone crossing. See the N8414Z flight status page for this flight to view local times or setup timezone preferences in your user account.

Time Position Orientation Groundspeed Altitude Reporting Facility
EST Latitude Longitude Course Direction KTS MPH feet Rate Location/Type
21:18 30.3438 -84.0780 130° Southeast  Level FlightAware Approximate
21:19 30.3171 -84.0406 130° Southeast  Level FlightAware Approximate
21:20 30.2908 -84.0028 128° Southeast  Level FlightAware Approximate
21:21 30.2652 -83.9643 128° Southeast  Level FlightAware Approximate
21:22 30.2396 -83.9259 128° Southeast  Level FlightAware Approximate
21:23 30.2139 -83.8875 128° Southeast  Level FlightAware Approximate
21:24 30.1883 -83.8491 128° Southeast  Level FlightAware Approximate
21:25 30.1622 -83.8111 133° Southeast  Level FlightAware Approximate
21:25 30.2375 -83.8881 130° Southeast 164 189 7,100  Level Jacksonville Center
21:26 30.1338 -83.7755 133° Southeast  Level FlightAware Approximate
21:26 30.2150 -83.8517 126° Southeast 164 189 7,100  Level Jacksonville Center
21:27 30.1053 -83.7399 133° Southeast  Level FlightAware Approximate
21:27 30.1881 -83.8131 129° Southeast 158 182 7,000  Level Jacksonville Center
21:28 30.0769 -83.7043 133° Southeast  Level FlightAware Approximate
21:28 30.1611 -83.7767 131° Southeast 158 182 7,000  Level Jacksonville Center
21:29 30.0484 -83.6688 133° Southeast  Level FlightAware Approximate
21:29 30.1322 -83.7403 133° Southeast 158 182 7,000  Level Jacksonville Center
21:30 30.0207 -83.6325 130° Southeast  Level FlightAware Approximate
21:30 30.1031 -83.7042 133° Southeast 158 182 7,000  Level Jacksonville Center
21:31 30.0764 -83.6631 127° Southeast 158 182 7,000  Level Jacksonville Center
21:32 30.0494 -83.6269 131° Southeast 158 182 7,000  Level Jacksonville Center
21:33 30.0203 -83.5883 131° Southeast 158 182 7,000  Level Jacksonville Center
21:34 29.9933 -83.5519 131° Southeast 158 182 7,000  Level Jacksonville Center
21:35 29.9686 -83.5111 125° Southeast 158 182 7,000  Level Jacksonville Center
21:36 29.9436 -83.4703 125° Southeast 158 182 7,000  Level Jacksonville Center
21:37 29.9231 -83.4269 119° Southeast 158 182 7,000  Level Jacksonville Center
21:38 29.9022 -83.3814 118° Southeast 152 175 7,000  Level Jacksonville Center
21:39 29.8878 -83.3333 109° East 152 175 7,100  Climbing Jacksonville Center
21:40 29.8756 -83.2856 106° East 152 175 7,000  Descending Jacksonville Center
21:41 29.8422 -83.2517 139° Southeast 152 175 7,100  Climbing Jacksonville Center
21:42 29.8089 -83.2253 146° Southeast 152 175 7,100  Level Jacksonville Center
21:43 29.7714 -83.1964 146° Southeast 157 181 7,100  Level Jacksonville Center
21:44 29.7358 -83.1678 145° Southeast 157 181 7,100  Level Jacksonville Center
21:44 29.7317 -83.1653 152° Southeast 153 176 7,100  Level Jacksonville Center
21:45 29.7006 -83.1411 146° Southeast 152 175 7,100  Level Jacksonville Center
21:46 29.6650 -83.1125 145° Southeast 152 175 7,100  Level Jacksonville Center
21:47 29.6358 -83.0861 142° Southeast 157 181 7,100  Level Jacksonville Center
21:47 29.6297 -83.0836 160° South 152 175 7,100  Level Jacksonville Center
21:48 29.6025 -83.0575 140° Southeast 152 175 7,100  Level Jacksonville Center
21:48 29.5961 -83.0550 161° South 151 174 7,100  Level Jacksonville Center
21:49 29.5669 -83.0286 142° Southeast 152 175 7,100  Level Jacksonville Center
21:49 29.5608 -83.0239 146° Southeast 152 175 7,100  Level Jacksonville Center
21:50 29.5336 -82.9975 140° Southeast 152 175 7,100  Level Jacksonville Center
21:50 29.5275 -82.9928 146° Southeast 153 176 7,100  Level Jacksonville Center
21:51 29.4983 -82.9761 154° Southeast 152 175 7,100  Level Jacksonville Center
21:52 29.4669 -82.9547 149° Southeast 150 173 7,100  Level Jacksonville Center
21:52 29.4606 -82.9522 161° South 152 175 7,100  Level Jacksonville Center
21:53 29.4253 -82.9283 149° Southeast 147 169 7,100  Level Jacksonville Center
21:54 29.3875 -82.9044 151° Southeast 149 171 7,100  Level Jacksonville Center
21:54 29.3897 -82.9044 360° North 147 169 7,100  Level Jacksonville Center
21:55 29.3500 -82.8806 152° Southeast 148 170 7,100  Level Jacksonville Center
21:55 29.3522 -82.8806 360° North 147 169 7,100  Level Jacksonville Center
21:56 29.3144 -82.8592 154° Southeast 147 169 7,100  Level Jacksonville Center
21:57 29.2789 -82.8356 150° Southeast 148 170 7,100 -60 Level Jacksonville Center
21:58 29.2414 -82.8092 148° Southeast 143 165 7,000 -60 Descending Jacksonville Center
21:59 29.2122 -82.7903 151° Southeast 145 167 7,000  Level Jacksonville Center
22:00 29.1747 -82.7642 149° Southeast 148 170 7,000  Level Jacksonville Center
22:01 29.1392 -82.7406 150° Southeast 146 168 7,000  Level Jacksonville Center
22:02 29.1036 -82.7192 152° Southeast 145 167 7,000  Level Jacksonville Center
22:03 29.0617 -82.6906 149° Southeast 144 166 7,100  Climbing Jacksonville Center
22:04 29.0325 -82.6742 154° Southeast 140 161 7,100  Level Jacksonville Center
22:05 28.9969 -82.6506 150° Southeast 140 161 7,100  Level Jacksonville Center
22:06 28.9656 -82.6292 149° Southeast 140 161 7,100 -60 Level Jacksonville Center
22:07 28.9239 -82.6031 151° Southeast 140 161 7,000 -60 Descending Jacksonville Center
22:08 28.8947 -82.5842 150° Southeast 144 166 7,000  Level Jacksonville Center
22:09 28.8569 -82.5583 149° Southeast 144 166 7,000  Level Jacksonville Center
22:12 28.7833 -82.5000 145° Southeast 143 165 7,000  Level Tampa TRACON
22:13 28.7500 -82.4833 156° South 141 162 7,000  Level Tampa TRACON
22:14 28.7000 -82.4667 164° South 141 162 7,000  Level Tampa TRACON
22:15 28.6667 -82.4333 139° Southeast 140 161 7,000  Level Tampa TRACON
22:16 28.6333 -82.4167 156° South 142 163 7,000  Level Tampa TRACON
22:17 28.6000 -82.4000 156° South 142 163 7,000  Level Tampa TRACON
22:18 28.5667 -82.3667 139° Southeast 141 162 7,000  Level Tampa TRACON
22:19 28.5333 -82.3500 156° South 140 161 7,000  Level Tampa TRACON
22:20 28.5000 -82.3333 156° South 137 158 7,000  Level Tampa TRACON
22:21 28.4667 -82.3167 156° South 132 152 7,000  Level Tampa TRACON
22:22 28.4333 -82.2833 139° Southeast 129 148 7,000  Level Tampa TRACON
22:23 28.4000 -82.2667 156° South 132 152 7,000  Level Tampa TRACON
22:24 28.3667 -82.2500 156° South 133 153 7,000  Level Tampa TRACON
22:25 28.3500 -82.2333 139° Southeast 133 153 7,000  Level Tampa TRACON
22:26 28.3167 -82.2167 156° South 125 144 7,100  Climbing Tampa TRACON
22:27 28.2833 -82.1833 139° Southeast 127 146 7,000 -60 Descending Tampa TRACON
22:28 28.2500 -82.1667 156° South 128 147 7,000  Level Tampa TRACON
22:29 28.2167 -82.1500 156° South 132 152 7,000  Level Tampa TRACON
22:30 28.1833 -82.1333 156° South 135 155 7,000  Level Tampa TRACON
22:31 28.1361 -82.0997 148° Southeast 100 115 7,000  Level Miami Center
22:32 28.1036 -82.0792 151° Southeast 112 129 7,000  Level Miami Center
22:33 28.0689 -82.0589 153° Southeast 125 144 7,000  Level Miami Center
22:34 28.0403 -82.0386 148° Southeast 125 144 7,000  Level Miami Center
22:35 28.0078 -82.0183 151° Southeast 130 150 7,000 -240 Level Miami Center
22:36 27.9750 -82.0006 154° Southeast 130 150 6,600 -600 Descending Miami Center
22:37 27.9400 -81.9825 155° Southeast 130 150 5,900 -660 Descending Miami Center
22:38 27.9053 -81.9644 155° Southeast 130 150 5,300 -600 Descending Miami Center
22:39 27.8683 -81.9464 157° South 130 150 4,700 -540 Descending Miami Center
22:40 27.8314 -81.9258 154° Southeast 135 155 4,300 -540 Descending Miami Center
22:41 27.7900 -81.9169 169° South 143 165 3,700 -600 Descending Miami Center
22:42 27.7506 -81.9175 181° South 143 165 3,200 -360 Descending Miami Center
22:43 27.7067 -81.9156 178° South 148 170 3,000 -120 Descending Miami Center
22:44 27.6694 -81.9069 168° South 143 165 3,000  Level Miami Center
22:45 27.6300 -81.9006 172° South 143 165 3,000  Level Miami Center
22:46 27.5967 -81.9014 181° South 143 165 3,000  Level Miami Center
22:47 27.5611 -81.8975 174° South 135 155 3,000  Level Miami Center
22:48 27.5153 -81.8978 180° South 142 163 3,000  Level Miami Center
22:49 27.4758 -81.8914 172° South 142 163 3,000  Level Miami Center
22:50 27.4383 -81.8875 175° South 142 163 3,000  Level Miami Center
22:51 27.4008 -81.8858 178° South 142 163 3,000  Level Miami Center
22:52 27.3614 -81.8842 178° South 142 163 3,000  Level Miami Center
22:53 27.3219 -81.8800 175° South 142 163 3,000  Level Miami Center
22:54 27.2844 -81.8761 175° South 142 163 3,000  Level Miami Center
22:55 27.2469 -81.8722 175° South 142 163 3,000  Level Miami Center
22:56 27.2094 -81.8681 174° South 142 163 3,000  Level Miami Center
22:57 27.1719 -81.8667 178° South 142 163 3,000  Level Miami Center
22:58 27.1347 -81.8625 174° South 142 163 3,000  Level Miami Center
22:59 27.0972 -81.8586 175° South 142 163 3,000  Level Miami Center
23:00 27.0619 -81.8547 174° South 142 163 3,000  Level Miami Center
23:01 27.0244 -81.8508 175° South 142 163 3,000  Level Miami Center
23:03 26.9787 -81.8460 175° South  Level FlightAware Approximate
23:10 26.6960 -81.8163 176° South  Level FlightAware Approximate
23:11 26.6556 -81.8130 176° South  Level FlightAware Approximate
23:12 26.6151 -81.8096 176° South  Level FlightAware Approximate
23:13 26.5747 -81.8062 176° South  Level FlightAware Approximate
23:14 26.5342 -81.8028 176° South  Level FlightAware Approximate
23:15 26.4938 -81.7995 176° South  Level FlightAware Approximate
23:16 26.4534 -81.7961 176° South  Level FlightAware Approximate
23:17 26.4129 -81.7927 176° South  Level FlightAware Approximate
23:18 26.3725 -81.7894 176° South  Level FlightAware Approximate
23:19 26.3320 -81.7860 176° South  Level FlightAware Approximate
23:20 26.2917 -81.7813 167° South  Level FlightAware Approximate
23:21 26.2522 -81.7714 167° South  Level FlightAware Approximate
23:22 26.2121 -81.7667 180° South  Level FlightAware Approximate
23:23 26.1715 -81.7667 180° South  Level FlightAware Approximate
23:24 26.1500 -81.7667 180° South  Level FlightAware Approximate
23:25 26.1524 -81.7756 180° South  Level Estimated
23:26 26.1524 -81.7756 180° South  Level Estimated
23:27 26.1524 -81.7756 180° South  Level Estimated
23:28 26.1524 -81.7756 180° South  Level Estimated
23:29 26.1524 -81.7756 180° South  Level Estimated
23:30 26.1524 -81.7756 180° South  Level Estimated
23:31 26.1524 -81.7756 180° South  Level Estimated
23:32 26.1524 -81.7756 180° South  Level Estimated
23:33 26.1524 -81.7756 180° South  Level Estimated
23:34 26.1524 -81.7756 180° South  Level Estimated
23:35 26.1524 -81.7756 180° South  Level Estimated
23:36 26.1524 -81.7756 180° South  Level Estimated
23:37 26.1524 -81.7756 180° South  Level Estimated
23:38 26.1524 -81.7756 180° South  Level Estimated
23:39 26.1524 -81.7756 180° South  Level Estimated